Time;durP1;ratioP1;P1;durP2;ratioP2;P2;SDS_P1;SDS_P2;PMS_P1;PMS_P2;Temp;Humidity;BMP_temperature;BMP_pressure;BME280_temperature;BME280_humidity;BME280_pressure;Samples;Min_cycle;Max_cycle;Signal;HPM_P1;HPM_P2
2021/11/27 00:00:50;;;;;;;5.27;4.87;;;;;;;;;;2070865;28;20180;-62
2021/11/27 00:01:50;;;;;;;5.53;5.00;;;;;;;;;;2072542;28;20173;-63
2021/11/27 00:02:51;;;;;;;4.57;4.30;;;;;;;;;;2073520;28;20193;-63
2021/11/27 00:03:53;;;;;;;4.83;4.43;;;;;;;;;;2069442;28;20188;-63
2021/11/27 00:04:54;;;;;;;5.03;4.63;;;;;;;;;;2072491;28;20181;-63
2021/11/27 00:05:55;;;;;;;5.57;5.17;;;;;;;;;;2074235;28;20267;-63
2021/11/27 00:06:55;;;;;;;4.13;3.83;;;;;;;;;;2081120;28;20179;-63
2021/11/27 00:07:56;;;;;;;4.43;4.13;;;;;;;;;;2080752;28;20644;-62
2021/11/27 00:08:59;;;;;;;4.00;3.70;;;;;;;;;;2071185;28;20240;-62
2021/11/27 00:09:59;;;;;;;4.27;3.97;;;;;;;;;;2077499;28;20164;-61
2021/11/27 00:11:00;;;;;;;4.60;4.20;;;;;;;;;;2074573;28;20161;-62
2021/11/27 00:12:00;;;;;;;4.40;4.10;;;;;;;;;;2079147;28;20189;-61
2021/11/27 00:13:00;;;;;;;6.30;4.07;;;;;;;;;;2074655;28;20169;-62
2021/11/27 00:14:01;;;;;;;4.53;4.10;;;;;;;;;;2072900;28;20200;-62
2021/11/27 00:15:02;;;;;;;3.60;3.40;;;;;;;;;;2073325;28;20173;-63
2021/11/27 00:16:02;;;;;;;4.30;4.00;;;;;;;;;;2076866;28;20181;-63
2021/11/27 00:17:02;;;;;;;4.20;3.90;;;;;;;;;;2074251;28;20181;-63
2021/11/27 00:18:03;;;;;;;4.60;4.20;;;;;;;;;;2076374;28;20251;-63
2021/11/27 00:19:04;;;;;;;4.70;4.30;;;;;;;;;;2074238;28;20256;-63
2021/11/27 00:20:07;;;;;;;4.60;4.30;;;;;;;;;;2070434;28;20232;-63
2021/11/27 00:21:09;;;;;;;4.53;4.23;;;;;;;;;;2073419;28;20223;-64
2021/11/27 00:22:09;;;;;;;4.43;4.13;;;;;;;;;;2068962;28;20178;-63
2021/11/27 00:23:10;;;;;;;4.73;4.43;;;;;;;;;;2068722;28;20173;-63
2021/11/27 00:24:10;;;;;;;4.17;3.87;;;;;;;;;;2074132;28;20195;-63
2021/11/27 00:25:12;;;;;;;4.73;4.37;;;;;;;;;;2073554;28;20589;-63
2021/11/27 00:26:13;;;;;;;5.07;4.70;;;;;;;;;;2067885;28;20189;-61
2021/11/27 00:27:14;;;;;;;4.03;3.80;;;;;;;;;;2070105;28;20182;-64
2021/11/27 00:28:14;;;;;;;5.13;4.80;;;;;;;;;;2072989;28;20200;-63
2021/11/27 00:29:15;;;;;;;3.50;3.30;;;;;;;;;;2064724;28;20265;-63
2021/11/27 00:30:18;;;;;;;4.10;3.80;;;;;;;;;;2067228;28;20178;-61
2021/11/27 00:31:23;;;;;;;4.07;3.83;;;;;;;;;;2065069;28;20173;-63
2021/11/27 00:32:23;;;;;;;5.13;4.07;;;;;;;;;;2066484;28;20201;-63
2021/11/27 00:33:24;;;;;;;4.30;4.00;;;;;;;;;;2072813;28;20162;-63
2021/11/27 00:34:24;;;;;;;3.93;3.73;;;;;;;;;;2079930;28;20214;-63
2021/11/27 00:35:25;;;;;;;4.27;4.00;;;;;;;;;;2073911;28;20184;-62
2021/11/27 00:36:25;;;;;;;4.60;4.30;;;;;;;;;;2079093;28;20303;-63
2021/11/27 00:37:26;;;;;;;4.50;4.20;;;;;;;;;;2064723;28;20614;-63
2021/11/27 00:38:26;;;;;;;4.63;4.20;;;;;;;;;;2073352;28;20264;-63
2021/11/27 00:39:27;;;;;;;4.63;4.33;;;;;;;;;;2081742;28;20176;-64
2021/11/27 00:40:28;;;;;;;4.07;3.77;;;;;;;;;;2081337;28;20244;-61
2021/11/27 00:41:29;;;;;;;4.83;4.53;;;;;;;;;;2073045;28;20199;-62
2021/11/27 00:42:30;;;;;;;3.87;3.57;;;;;;;;;;2073338;28;20192;-61
2021/11/27 00:43:30;;;;;;;3.90;3.70;;;;;;;;;;2073090;28;20188;-64
2021/11/27 00:44:31;;;;;;;4.57;4.27;;;;;;;;;;2073991;28;20169;-62
2021/11/27 00:45:31;;;;;;;4.57;3.93;;;;;;;;;;2073999;28;20173;-62
2021/11/27 00:46:32;;;;;;;4.87;4.47;;;;;;;;;;2068727;28;20727;-64
2021/11/27 00:47:32;;;;;;;4.87;4.53;;;;;;;;;;2072863;28;20196;-63
2021/11/27 00:48:32;;;;;;;4.47;4.17;;;;;;;;;;2081168;28;20180;-63
2021/11/27 00:49:33;;;;;;;4.40;4.10;;;;;;;;;;2073468;28;20519;-62
2021/11/27 00:50:36;;;;;;;4.60;4.30;;;;;;;;;;2079291;28;20172;-61
2021/11/27 00:51:36;;;;;;;4.77;4.33;;;;;;;;;;2076877;28;20218;-62
2021/11/27 00:52:37;;;;;;;4.50;4.10;;;;;;;;;;2077689;28;20213;-61
2021/11/27 00:53:37;;;;;;;4.27;3.87;;;;;;;;;;2076815;28;20168;-63
2021/11/27 00:54:37;;;;;;;4.37;4.07;;;;;;;;;;2076312;28;20177;-63
2021/11/27 00:55:38;;;;;;;6.50;6.00;;;;;;;;;;2077617;28;20595;-62
2021/11/27 00:56:39;;;;;;;5.43;4.97;;;;;;;;;;2079879;28;20641;-62
2021/11/27 00:57:40;;;;;;;4.27;3.97;;;;;;;;;;2079136;28;20298;-63
2021/11/27 00:58:41;;;;;;;4.63;4.33;;;;;;;;;;2074017;28;20706;-61
2021/11/27 00:59:41;;;;;;;4.50;4.20;;;;;;;;;;2078809;28;20431;-61
2021/11/27 01:00:44;;;;;;;4.97;4.60;;;;;;;;;;2071946;28;20177;-64
2021/11/27 01:01:45;;;;;;;5.60;5.10;;;;;;;;;;2075698;28;20165;-62
2021/11/27 01:02:46;;;;;;;7.93;7.23;;;;;;;;;;2070491;28;20287;-61
2021/11/27 01:03:54;;;;;;;4.80;4.40;;;;;;;;;;2070337;28;20165;-64
2021/11/27 01:04:54;;;;;;;4.93;4.57;;;;;;;;;;2072504;28;20274;-63
2021/11/27 01:05:57;;;;;;;4.90;4.60;;;;;;;;;;2071313;28;20263;-64
2021/11/27 01:06:58;;;;;;;5.53;5.10;;;;;;;;;;2081672;28;20569;-64
2021/11/27 01:07:59;;;;;;;6.17;5.77;;;;;;;;;;2078490;28;20242;-65
2021/11/27 01:09:00;;;;;;;5.20;4.70;;;;;;;;;;2066459;28;20224;-63
2021/11/27 01:10:03;;;;;;;5.00;4.67;;;;;;;;;;2078299;28;20176;-61
2021/11/27 01:11:10;;;;;;;6.00;5.50;;;;;;;;;;2081487;28;20175;-63
2021/11/27 01:12:11;;;;;;;5.67;4.57;;;;;;;;;;2073326;28;20660;-63
2021/11/27 01:13:11;;;;;;;5.80;5.20;;;;;;;;;;2081657;28;20180;-63
2021/11/27 01:14:14;;;;;;;4.60;4.30;;;;;;;;;;2073613;28;20176;-64
2021/11/27 01:15:16;;;;;;;5.10;4.80;;;;;;;;;;2057185;28;20182;-64
2021/11/27 01:16:18;;;;;;;5.37;4.97;;;;;;;;;;2065730;28;20182;-63
2021/11/27 01:17:18;;;;;;;5.50;5.10;;;;;;;;;;2081914;28;20292;-63
2021/11/27 01:18:19;;;;;;;5.30;5.00;;;;;;;;;;2073017;28;20180;-64
2021/11/27 01:19:20;;;;;;;5.43;5.03;;;;;;;;;;2066456;28;20184;-64
2021/11/27 01:20:21;;;;;;;6.37;5.77;;;;;;;;;;2073379;28;20195;-63
2021/11/27 01:21:23;;;;;;;5.70;5.23;;;;;;;;;;2074443;28;20171;-63
2021/11/27 01:22:23;;;;;;;5.90;5.50;;;;;;;;;;2067839;28;20252;-64
2021/11/27 01:23:24;;;;;;;7.23;6.63;;;;;;;;;;2067781;28;20269;-63
2021/11/27 01:24:25;;;;;;;6.53;5.87;;;;;;;;;;2078282;28;20226;-64
2021/11/27 01:25:26;;;;;;;5.30;4.90;;;;;;;;;;2067729;28;20681;-63
2021/11/27 01:26:26;;;;;;;5.63;5.13;;;;;;;;;;2079615;28;20206;-62
2021/11/27 01:27:27;;;;;;;5.30;5.00;;;;;;;;;;2072471;28;20196;-64
2021/11/27 01:28:27;;;;;;;6.47;5.97;;;;;;;;;;2072805;28;20200;-62
2021/11/27 01:29:28;;;;;;;5.67;5.17;;;;;;;;;;2074215;28;20189;-62
2021/11/27 01:30:28;;;;;;;5.50;5.10;;;;;;;;;;2086554;28;20180;-63
2021/11/27 01:31:29;;;;;;;6.17;5.73;;;;;;;;;;2067797;28;20237;-63
2021/11/27 01:32:29;;;;;;;5.93;5.43;;;;;;;;;;2073236;28;20185;-63
2021/11/27 01:33:31;;;;;;;5.60;5.10;;;;;;;;;;2073001;28;20169;-62
2021/11/27 01:34:32;;;;;;;5.50;5.10;;;;;;;;;;2062601;28;20204;-63
2021/11/27 01:35:32;;;;;;;5.47;5.07;;;;;;;;;;2061829;28;20170;-63
2021/11/27 01:36:33;;;;;;;5.80;5.30;;;;;;;;;;2068997;28;20177;-63
2021/11/27 01:37:34;;;;;;;5.57;5.17;;;;;;;;;;2067426;28;20199;-63
2021/11/27 01:38:35;;;;;;;5.77;5.37;;;;;;;;;;2072067;28;20173;-62
2021/11/27 01:39:36;;;;;;;6.13;5.60;;;;;;;;;;2071769;28;20208;-62
2021/11/27 01:40:36;;;;;;;6.27;5.77;;;;;;;;;;2068995;28;20227;-62
2021/11/27 01:41:37;;;;;;;5.73;5.33;;;;;;;;;;2075347;28;20169;-63
2021/11/27 01:42:38;;;;;;;5.23;4.83;;;;;;;;;;2068181;28;20201;-62
2021/11/27 01:43:38;;;;;;;7.40;6.77;;;;;;;;;;2070148;28;20184;-63
2021/11/27 01:44:39;;;;;;;6.70;6.07;;;;;;;;;;2072127;28;20173;-63
2021/11/27 01:45:40;;;;;;;6.83;6.23;;;;;;;;;;2061734;28;20214;-62
2021/11/27 01:46:40;;;;;;;6.83;6.33;;;;;;;;;;2061804;28;20210;-64
2021/11/27 01:47:48;;;;;;;5.80;5.40;;;;;;;;;;2073801;28;20247;-62
2021/11/27 01:48:48;;;;;;;6.20;5.80;;;;;;;;;;2075410;28;20239;-61
2021/11/27 01:49:48;;;;;;;8.40;6.70;;;;;;;;;;2071871;28;20750;-64
2021/11/27 01:50:54;;;;;;;6.63;6.00;;;;;;;;;;2068471;28;20260;-63
2021/11/27 01:51:54;;;;;;;6.83;6.23;;;;;;;;;;2077902;28;20175;-62
2021/11/27 01:52:55;;;;;;;5.77;5.27;;;;;;;;;;2074317;28;20200;-63
2021/11/27 01:53:57;;;;;;;5.47;5.07;;;;;;;;;;2071979;28;20215;-63
2021/11/27 01:54:58;;;;;;;5.90;5.50;;;;;;;;;;2072548;28;20540;-62
2021/11/27 01:56:00;;;;;;;5.13;4.73;;;;;;;;;;2070749;28;20173;-63
2021/11/27 01:57:02;;;;;;;5.87;5.33;;;;;;;;;;2072326;28;20234;-63
2021/11/27 01:58:04;;;;;;;6.03;5.53;;;;;;;;;;2077224;28;20164;-62
2021/11/27 01:59:05;;;;;;;5.47;5.07;;;;;;;;;;2073057;28;20737;-62
2021/11/27 02:00:07;;;;;;;5.10;4.70;;;;;;;;;;2070812;28;20630;-62
2021/11/27 02:01:18;;;;;;;5.47;5.07;;;;;;;;;;2065937;28;20158;-62
2021/11/27 02:02:20;;;;;;;5.20;4.90;;;;;;;;;;2072090;28;20200;-63
2021/11/27 02:03:21;;;;;;;5.80;5.40;;;;;;;;;;2072134;28;20176;-63
2021/11/27 02:04:37;;;;;;;5.40;4.97;;;;;;;;;;2065083;28;20165;-61
2021/11/27 02:05:38;;;;;;;5.67;5.17;;;;;;;;;;2073012;28;20251;-62
2021/11/27 02:06:40;;;;;;;5.67;5.27;;;;;;;;;;2078243;28;20630;-62
2021/11/27 02:07:40;;;;;;;5.63;5.17;;;;;;;;;;2073204;28;20672;-62
2021/11/27 02:08:43;;;;;;;6.07;5.67;;;;;;;;;;2072719;28;20259;-60
2021/11/27 02:09:44;;;;;;;5.20;4.80;;;;;;;;;;2049749;28;20663;-62
2021/11/27 02:10:45;;;;;;;6.03;5.63;;;;;;;;;;2063945;28;20177;-64
2021/11/27 02:11:45;;;;;;;5.57;5.17;;;;;;;;;;2079386;28;20668;-63
2021/11/27 02:12:46;;;;;;;5.70;5.20;;;;;;;;;;2077461;28;20210;-63
2021/11/27 02:13:48;;;;;;;5.40;5.00;;;;;;;;;;2074031;28;20176;-63
2021/11/27 02:14:49;;;;;;;6.17;5.37;;;;;;;;;;2063357;28;20721;-64
2021/11/27 02:15:54;;;;;;;5.67;5.23;;;;;;;;;;2075900;28;20184;-63
2021/11/27 02:16:55;;;;;;;6.00;5.50;;;;;;;;;;2073682;28;20231;-62
2021/11/27 02:18:00;;;;;;;5.13;4.83;;;;;;;;;;2073720;28;20209;-63
2021/11/27 02:19:01;;;;;;;5.73;5.30;;;;;;;;;;2068858;28;20174;-62
2021/11/27 02:20:02;;;;;;;5.53;5.03;;;;;;;;;;2071094;28;20196;-62
2021/11/27 02:21:04;;;;;;;5.63;5.23;;;;;;;;;;2080708;28;20185;-62
2021/11/27 02:22:05;;;;;;;5.87;5.47;;;;;;;;;;2069385;28;20165;-62
2021/11/27 02:23:18;;;;;;;5.50;5.00;;;;;;;;;;2067623;28;20200;-62
2021/11/27 02:24:20;;;;;;;5.53;5.13;;;;;;;;;;2071372;28;20192;-63
2021/11/27 02:25:21;;;;;;;5.90;5.50;;;;;;;;;;2067150;28;20662;-63
2021/11/27 02:26:27;;;;;;;5.60;5.13;;;;;;;;;;2072479;28;20613;-63
2021/11/27 02:27:30;;;;;;;5.77;5.37;;;;;;;;;;2064924;28;20259;-63
2021/11/27 02:28:31;;;;;;;6.73;6.13;;;;;;;;;;2063399;28;20642;-63
2021/11/27 02:29:32;;;;;;;6.23;5.63;;;;;;;;;;2071336;28;20219;-62
2021/11/27 02:30:33;;;;;;;6.57;5.97;;;;;;;;;;2075431;28;20165;-63
2021/11/27 02:31:34;;;;;;;5.87;5.47;;;;;;;;;;2073883;28;20669;-63
2021/11/27 02:32:35;;;;;;;7.60;6.20;;;;;;;;;;2058378;28;20222;-62
2021/11/27 02:33:36;;;;;;;6.33;5.73;;;;;;;;;;2058668;28;20188;-63
2021/11/27 02:34:37;;;;;;;5.77;5.30;;;;;;;;;;2065119;28;20174;-63
2021/11/27 02:35:41;;;;;;;7.03;6.43;;;;;;;;;;2070750;28;20168;-62
2021/11/27 02:36:43;;;;;;;6.37;5.87;;;;;;;;;;2071701;28;20315;-62
2021/11/27 02:37:45;;;;;;;6.37;5.87;;;;;;;;;;2071859;28;20219;-63
2021/11/27 02:38:46;;;;;;;6.57;5.97;;;;;;;;;;2072604;28;20689;-63
2021/11/27 02:39:47;;;;;;;7.63;7.03;;;;;;;;;;2075957;28;20172;-62
2021/11/27 02:40:51;;;;;;;6.73;6.23;;;;;;;;;;2065257;28;20165;-63
2021/11/27 02:41:53;;;;;;;6.60;5.93;;;;;;;;;;2066308;28;20704;-63
2021/11/27 02:42:55;;;;;;;6.90;6.40;;;;;;;;;;2072536;28;20204;-63
2021/11/27 02:43:55;;;;;;;6.57;6.07;;;;;;;;;;2071757;28;20774;-62
2021/11/27 02:44:56;;;;;;;7.03;6.37;;;;;;;;;;2062188;28;20209;-63
2021/11/27 02:45:56;;;;;;;6.43;5.93;;;;;;;;;;2071690;28;20282;-63
2021/11/27 02:46:57;;;;;;;6.90;6.30;;;;;;;;;;2080361;28;20175;-60
2021/11/27 02:47:58;;;;;;;7.43;6.90;;;;;;;;;;2073165;28;20173;-63
2021/11/27 02:48:58;;;;;;;7.17;6.57;;;;;;;;;;2064150;28;20548;-63
2021/11/27 02:50:01;;;;;;;6.53;6.00;;;;;;;;;;2072046;28;20180;-63
2021/11/27 02:51:02;;;;;;;7.27;6.67;;;;;;;;;;2073309;28;20173;-63
2021/11/27 02:52:03;;;;;;;6.57;6.07;;;;;;;;;;2078788;28;20202;-64
2021/11/27 02:53:04;;;;;;;6.33;5.73;;;;;;;;;;2079323;28;20183;-62
2021/11/27 02:54:05;;;;;;;5.93;5.47;;;;;;;;;;2073333;28;20792;-62
2021/11/27 02:55:06;;;;;;;6.23;5.83;;;;;;;;;;2079410;28;20168;-64
2021/11/27 02:56:06;;;;;;;6.07;5.57;;;;;;;;;;2071597;28;20715;-62
2021/11/27 02:57:07;;;;;;;5.83;5.27;;;;;;;;;;2072215;28;20192;-62
2021/11/27 02:58:07;;;;;;;6.10;5.60;;;;;;;;;;2069688;28;20268;-62
2021/11/27 02:59:10;;;;;;;5.57;5.17;;;;;;;;;;2064290;28;20189;-62
2021/11/27 03:00:12;;;;;;;5.73;5.33;;;;;;;;;;2073914;28;20184;-63
2021/11/27 03:01:13;;;;;;;5.93;5.53;;;;;;;;;;2071754;28;20799;-63
2021/11/27 03:02:13;;;;;;;6.13;5.73;;;;;;;;;;2072570;28;20248;-62
2021/11/27 03:03:13;;;;;;;6.40;5.90;;;;;;;;;;2063788;28;20270;-62
2021/11/27 03:04:14;;;;;;;7.57;5.73;;;;;;;;;;2073771;28;20173;-63
2021/11/27 03:05:15;;;;;;;5.63;5.23;;;;;;;;;;2063605;28;20277;-62
2021/11/27 03:06:16;;;;;;;6.50;6.00;;;;;;;;;;2067624;28;20212;-64
2021/11/27 03:07:17;;;;;;;6.77;6.17;;;;;;;;;;2072361;28;20179;-63
2021/11/27 03:08:19;;;;;;;6.67;6.17;;;;;;;;;;2070730;28;20215;-64
2021/11/27 03:09:20;;;;;;;6.07;5.57;;;;;;;;;;2072390;28;20575;-64
2021/11/27 03:10:20;;;;;;;6.47;5.87;;;;;;;;;;2071143;28;20204;-64
2021/11/27 03:11:21;;;;;;;6.37;5.80;;;;;;;;;;2071960;28;20223;-64
2021/11/27 03:12:21;;;;;;;6.50;6.00;;;;;;;;;;2073410;28;20197;-64
2021/11/27 03:13:29;;;;;;;6.63;6.13;;;;;;;;;;2071812;28;20715;-63
2021/11/27 03:14:29;;;;;;;6.50;6.00;;;;;;;;;;2053606;28;20742;-63
2021/11/27 03:15:31;;;;;;;7.23;6.10;;;;;;;;;;2056203;28;20179;-64
2021/11/27 03:16:32;;;;;;;6.40;5.90;;;;;;;;;;2062198;28;20180;-63
2021/11/27 03:17:33;;;;;;;6.07;5.67;;;;;;;;;;2068390;28;20169;-62
2021/11/27 03:18:33;;;;;;;6.53;5.97;;;;;;;;;;2058671;28;20185;-62
2021/11/27 03:19:36;;;;;;;6.93;6.27;;;;;;;;;;2057171;28;20177;-64
2021/11/27 03:20:38;;;;;;;6.43;5.80;;;;;;;;;;2071278;28;20164;-63
2021/11/27 03:21:38;;;;;;;6.40;5.83;;;;;;;;;;2075116;28;20646;-62
2021/11/27 03:22:39;;;;;;;7.40;6.10;;;;;;;;;;2088320;23;20228;-60
2021/11/27 03:23:39;;;;;;;5.30;4.90;;;;;;;;;;2062370;28;20185;-60
2021/11/27 03:24:41;;;;;;;6.23;5.73;;;;;;;;;;2063134;28;20166;-60
2021/11/27 03:25:41;;;;;;;5.53;5.00;;;;;;;;;;2072045;28;20165;-60
2021/11/27 03:26:42;;;;;;;6.07;5.47;;;;;;;;;;2063128;28;20344;-60
2021/11/27 03:27:42;;;;;;;5.70;5.30;;;;;;;;;;2064158;28;20603;-59
2021/11/27 03:28:43;;;;;;;6.20;5.70;;;;;;;;;;2063187;28;20223;-60
2021/11/27 03:29:44;;;;;;;5.77;5.37;;;;;;;;;;2062673;28;20201;-60
2021/11/27 03:30:45;;;;;;;5.73;5.33;;;;;;;;;;2068868;28;20691;-60
2021/11/27 03:31:46;;;;;;;5.70;5.30;;;;;;;;;;2063615;28;20205;-60
2021/11/27 03:32:57;;;;;;;6.17;5.67;;;;;;;;;;2065303;28;20201;-60
2021/11/27 03:33:58;;;;;;;6.33;5.83;;;;;;;;;;2064004;28;20763;-59
2021/11/27 03:34:58;;;;;;;5.77;5.30;;;;;;;;;;2072048;28;20184;-58
2021/11/27 03:36:08;;;;;;;4.80;4.40;;;;;;;;;;2072572;28;20267;-60
2021/11/27 03:37:15;;;;;;;5.47;5.13;;;;;;;;;;2064950;28;20239;-59
2021/11/27 03:38:15;;;;;;;5.93;5.47;;;;;;;;;;2073302;28;20181;-56
2021/11/27 03:39:16;;;;;;;5.23;4.90;;;;;;;;;;2073837;28;20176;-61
2021/11/27 03:40:16;;;;;;;5.80;5.27;;;;;;;;;;2069882;28;20272;-61
2021/11/27 03:41:17;;;;;;;5.37;4.97;;;;;;;;;;2066066;28;20176;-60
2021/11/27 03:42:19;;;;;;;6.07;5.57;;;;;;;;;;2073561;28;20173;-60
2021/11/27 03:43:20;;;;;;;5.43;5.03;;;;;;;;;;2065055;28;20169;-60
2021/11/27 03:44:20;;;;;;;5.70;5.20;;;;;;;;;;2073707;28;20641;-59
2021/11/27 03:45:22;;;;;;;5.47;4.97;;;;;;;;;;2074331;28;20213;-59
2021/11/27 03:46:23;;;;;;;5.00;4.70;;;;;;;;;;2075272;28;20242;-57
2021/11/27 03:47:23;;;;;;;5.47;5.07;;;;;;;;;;2072840;28;20173;-59
2021/11/27 03:48:31;;;;;;;5.00;4.60;;;;;;;;;;2073332;28;20248;-57
2021/11/27 03:49:45;;;;;;;5.57;5.10;;;;;;;;;;2076089;28;20700;-59
2021/11/27 03:50:48;;;;;;;5.00;4.70;;;;;;;;;;2073310;28;20177;-57
2021/11/27 03:51:49;;;;;;;5.57;5.17;;;;;;;;;;2074026;28;20196;-59
2021/11/27 03:52:50;;;;;;;5.50;5.00;;;;;;;;;;2073230;28;20787;-58
2021/11/27 03:53:50;;;;;;;5.93;5.20;;;;;;;;;;2066462;28;20170;-58
2021/11/27 03:54:51;;;;;;;5.40;5.00;;;;;;;;;;2068104;28;20165;-59
2021/11/27 03:55:53;;;;;;;4.90;4.60;;;;;;;;;;2073531;28;20256;-61
2021/11/27 03:56:54;;;;;;;5.07;4.57;;;;;;;;;;2073475;28;20169;-60
2021/11/27 03:57:54;;;;;;;4.70;4.40;;;;;;;;;;2073632;28;20169;-60
2021/11/27 03:58:58;;;;;;;4.90;4.50;;;;;;;;;;2073484;28;20264;-60
2021/11/27 03:59:59;;;;;;;5.07;4.67;;;;;;;;;;2065197;28;20693;-60
2021/11/27 04:00:59;;;;;;;5.10;4.70;;;;;;;;;;2073724;28;20193;-60
2021/11/27 04:02:00;;;;;;;5.60;5.20;;;;;;;;;;2072913;28;20169;-60
2021/11/27 04:03:01;;;;;;;5.10;4.70;;;;;;;;;;2064409;28;20636;-59
2021/11/27 04:04:02;;;;;;;4.90;4.60;;;;;;;;;;2062304;28;20232;-58
2021/11/27 04:05:03;;;;;;;4.90;4.57;;;;;;;;;;2066707;28;20221;-58
2021/11/27 04:06:04;;;;;;;4.77;4.37;;;;;;;;;;2067103;28;20235;-57
2021/11/27 04:07:05;;;;;;;5.03;4.63;;;;;;;;;;2064865;28;20169;-57
2021/11/27 04:08:05;;;;;;;5.00;4.70;;;;;;;;;;2063530;28;20264;-59
2021/11/27 04:09:07;;;;;;;5.10;4.70;;;;;;;;;;2072594;28;20188;-59
2021/11/27 04:10:09;;;;;;;4.83;4.53;;;;;;;;;;2062992;28;20211;-57
2021/11/27 04:11:09;;;;;;;5.23;4.73;;;;;;;;;;2064597;28;20185;-58
2021/11/27 04:12:10;;;;;;;4.43;4.17;;;;;;;;;;2066679;28;20620;-60
2021/11/27 04:13:18;;;;;;;4.70;4.40;;;;;;;;;;2065241;28;20951;-59
2021/11/27 04:14:19;;;;;;;4.67;4.27;;;;;;;;;;2061256;28;20261;-57
2021/11/27 04:15:27;;;;;;;4.70;4.40;;;;;;;;;;2065953;28;20182;-61
2021/11/27 04:16:28;;;;;;;5.30;4.70;;;;;;;;;;2065108;28;20189;-58
2021/11/27 04:17:28;;;;;;;5.17;4.67;;;;;;;;;;2064910;28;20174;-58
2021/11/27 04:18:30;;;;;;;4.93;4.63;;;;;;;;;;2073385;28;20900;-62
2021/11/27 04:19:30;;;;;;;4.50;4.13;;;;;;;;;;2073062;28;20241;-57
2021/11/27 04:20:31;;;;;;;4.60;4.20;;;;;;;;;;2073257;28;20196;-56
2021/11/27 04:21:31;;;;;;;4.40;4.10;;;;;;;;;;2072640;28;20173;-58
2021/11/27 04:22:32;;;;;;;4.70;4.27;;;;;;;;;;2072629;28;20218;-59
2021/11/27 04:23:38;;;;;;;3.97;3.77;;;;;;;;;;2077489;28;20172;-59
2021/11/27 04:24:44;;;;;;;4.53;4.23;;;;;;;;;;2074010;28;20584;-60
2021/11/27 04:25:44;;;;;;;4.53;4.13;;;;;;;;;;2073785;28;20165;-60
2021/11/27 04:26:44;;;;;;;4.50;4.20;;;;;;;;;;2071676;28;20220;-60
2021/11/27 04:27:45;;;;;;;3.97;3.70;;;;;;;;;;2069113;28;20623;-57
2021/11/27 04:28:46;;;;;;;4.20;3.90;;;;;;;;;;2063052;28;20209;-63
2021/11/27 04:29:47;;;;;;;4.40;4.10;;;;;;;;;;2065363;28;20805;-61
2021/11/27 04:30:47;;;;;;;4.00;3.80;;;;;;;;;;2070669;28;20180;-59
2021/11/27 04:31:48;;;;;;;3.70;3.50;;;;;;;;;;2073200;28;20595;-59
2021/11/27 04:32:49;;;;;;;4.10;3.90;;;;;;;;;;2065673;28;20197;-60
2021/11/27 04:33:57;;;;;;;4.00;3.70;;;;;;;;;;2075371;28;20168;-60
2021/11/27 04:34:57;;;;;;;3.80;3.60;;;;;;;;;;2074252;28;20195;-60
2021/11/27 04:35:59;;;;;;;4.17;3.87;;;;;;;;;;2057813;28;20186;-60
2021/11/27 04:37:09;;;;;;;4.80;4.50;;;;;;;;;;2052941;28;20175;-60
2021/11/27 04:38:10;;;;;;;4.47;4.17;;;;;;;;;;2064246;28;20548;-59
2021/11/27 04:39:10;;;;;;;4.47;4.17;;;;;;;;;;2064979;28;20646;-60
2021/11/27 04:40:11;;;;;;;4.63;4.10;;;;;;;;;;2064713;28;20186;-59
2021/11/27 04:41:12;;;;;;;4.00;3.67;;;;;;;;;;2065604;28;20185;-60
2021/11/27 04:42:13;;;;;;;3.73;3.53;;;;;;;;;;2064019;28;20182;-58
2021/11/27 04:43:14;;;;;;;4.30;4.00;;;;;;;;;;2064554;28;20661;-59
2021/11/27 04:44:15;;;;;;;4.23;3.93;;;;;;;;;;2072699;28;20561;-60
2021/11/27 04:45:16;;;;;;;4.03;3.60;;;;;;;;;;2073728;28;20210;-60
2021/11/27 04:46:20;;;;;;;3.20;3.03;;;;;;;;;;2064487;28;20237;-59
2021/11/27 04:47:20;;;;;;;3.70;3.40;;;;;;;;;;2064516;28;20577;-60
2021/11/27 04:48:22;;;;;;;3.90;3.70;;;;;;;;;;2064789;28;20170;-60
2021/11/27 04:49:23;;;;;;;3.67;3.47;;;;;;;;;;2065315;28;20260;-58
2021/11/27 04:50:24;;;;;;;4.03;3.73;;;;;;;;;;2066036;28;20434;-59
2021/11/27 04:51:24;;;;;;;3.90;3.53;;;;;;;;;;2070951;28;20224;-60
2021/11/27 04:52:25;;;;;;;5.03;4.17;;;;;;;;;;2064452;28;20173;-58
2021/11/27 04:53:26;;;;;;;4.07;3.80;;;;;;;;;;2073084;28;20169;-59
2021/11/27 04:54:28;;;;;;;3.73;3.43;;;;;;;;;;2053128;28;20675;-60
2021/11/27 04:55:29;;;;;;;4.20;3.90;;;;;;;;;;2049526;28;20810;-59
2021/11/27 04:56:34;;;;;;;3.77;3.57;;;;;;;;;;2065959;28;20643;-58
2021/11/27 04:57:34;;;;;;;3.70;3.50;;;;;;;;;;2065318;28;20180;-58
2021/11/27 04:58:34;;;;;;;3.90;3.60;;;;;;;;;;2064820;28;20666;-57
2021/11/27 04:59:38;;;;;;;3.30;3.10;;;;;;;;;;2066548;28;20181;-61
2021/11/27 05:00:40;;;;;;;3.90;3.70;;;;;;;;;;2068894;28;20165;-59
2021/11/27 05:01:43;;;;;;;3.63;3.43;;;;;;;;;;2064967;28;20166;-60
2021/11/27 05:02:43;;;;;;;3.57;3.37;;;;;;;;;;2064535;28;20787;-57
2021/11/27 05:03:43;;;;;;;3.43;3.13;;;;;;;;;;2061691;28;20189;-59
2021/11/27 05:04:43;;;;;;;3.87;3.57;;;;;;;;;;2072587;28;20181;-60
2021/11/27 05:05:44;;;;;;;3.70;3.50;;;;;;;;;;2072590;28;20238;-60
2021/11/27 05:06:44;;;;;;;3.43;3.23;;;;;;;;;;2070201;28;20192;-58
2021/11/27 05:07:45;;;;;;;4.10;3.80;;;;;;;;;;2070551;28;20185;-61
2021/11/27 05:08:46;;;;;;;3.53;3.33;;;;;;;;;;2068447;28;20626;-59
2021/11/27 05:09:47;;;;;;;3.43;3.23;;;;;;;;;;2064806;28;20220;-60
2021/11/27 05:10:48;;;;;;;3.50;3.30;;;;;;;;;;2064473;28;20196;-59
2021/11/27 05:11:48;;;;;;;2.97;2.77;;;;;;;;;;2073203;28;20183;-59
2021/11/27 05:12:49;;;;;;;3.53;3.03;;;;;;;;;;2081476;28;20196;-60
2021/11/27 05:13:50;;;;;;;3.60;3.30;;;;;;;;;;2064965;28;20190;-59
2021/11/27 05:14:52;;;;;;;3.50;3.30;;;;;;;;;;2056987;28;20167;-60
2021/11/27 05:15:53;;;;;;;2.83;2.73;;;;;;;;;;2062840;28;20671;-61
2021/11/27 05:16:54;;;;;;;2.90;2.80;;;;;;;;;;2065123;28;20177;-59
2021/11/27 05:17:55;;;;;;;3.40;3.20;;;;;;;;;;2065415;28;20737;-60
2021/11/27 05:19:35;;;;;;;3.10;2.90;;;;;;;;;;2050138;28;20227;-61
2021/11/27 05:20:43;;;;;;;3.20;3.00;;;;;;;;;;2045691;29;20582;-60
2021/11/27 05:21:44;;;;;;;3.27;3.07;;;;;;;;;;2043311;29;20282;-60
2021/11/27 05:22:44;;;;;;;3.33;3.13;;;;;;;;;;2052150;28;20205;-60
2021/11/27 05:23:44;;;;;;;3.17;2.97;;;;;;;;;;2050104;28;20187;-59
2021/11/27 05:25:07;;;;;;;3.03;2.83;;;;;;;;;;2054089;28;20259;-59
2021/11/27 05:26:40;;;;;;;2.70;2.60;;;;;;;;;;2048722;28;20216;-60
2021/11/27 05:28:00;;;;;;;3.30;3.10;;;;;;;;;;2072622;28;20191;-60
2021/11/27 05:29:29;;;;;;;2.93;2.83;;;;;;;;;;2073210;28;20624;-59
2021/11/27 05:30:59;;;;;;;3.20;3.00;;;;;;;;;;2059505;28;20562;-59
2021/11/27 05:32:04;;;;;;;3.57;3.27;;;;;;;;;;2065315;28;20177;-60
2021/11/27 05:33:10;;;;;;;3.07;2.87;;;;;;;;;;2066207;28;20197;-60
2021/11/27 05:35:26;;;;;;;3.10;2.90;;;;;;;;;;2065023;28;20236;-58
2021/11/27 05:36:28;;;;;;;2.80;2.60;;;;;;;;;;2064920;28;20235;-60
2021/11/27 05:37:29;;;;;;;2.87;2.70;;;;;;;;;;2072809;28;20181;-61
2021/11/27 05:38:29;;;;;;;2.93;2.83;;;;;;;;;;2072890;28;20203;-60
2021/11/27 05:39:30;;;;;;;2.97;2.87;;;;;;;;;;2063479;28;20170;-59
2021/11/27 05:40:31;;;;;;;3.00;2.90;;;;;;;;;;2071822;28;20680;-60
2021/11/27 05:41:31;;;;;;;2.40;2.30;;;;;;;;;;2068025;28;20184;-60
2021/11/27 05:42:32;;;;;;;2.87;2.67;;;;;;;;;;2071767;28;20554;-59
2021/11/27 05:43:33;;;;;;;3.10;2.90;;;;;;;;;;2067852;28;20169;-59
2021/11/27 05:44:33;;;;;;;3.30;3.00;;;;;;;;;;2064522;28;20208;-60
2021/11/27 05:45:34;;;;;;;3.10;2.83;;;;;;;;;;2060207;28;20268;-59
2021/11/27 05:46:37;;;;;;;3.10;2.90;;;;;;;;;;2072602;28;20208;-59
2021/11/27 05:47:38;;;;;;;3.17;2.97;;;;;;;;;;2072396;28;20263;-60
2021/11/27 05:48:41;;;;;;;3.27;3.13;;;;;;;;;;2061861;28;20171;-59
2021/11/27 05:50:02;;;;;;;3.20;3.00;;;;;;;;;;2073685;28;20161;-59
2021/11/27 05:51:08;;;;;;;3.23;3.03;;;;;;;;;;2072554;28;20185;-58
2021/11/27 05:52:08;;;;;;;2.97;2.77;;;;;;;;;;2071017;28;20641;-59
2021/11/27 05:53:10;;;;;;;3.30;3.00;;;;;;;;;;2072834;28;20253;-60
2021/11/27 05:54:10;;;;;;;3.30;3.20;;;;;;;;;;2064355;28;20217;-59
2021/11/27 05:55:10;;;;;;;3.10;2.90;;;;;;;;;;2064760;28;20216;-57
2021/11/27 05:56:10;;;;;;;3.20;3.00;;;;;;;;;;2071671;28;20200;-60
2021/11/27 05:57:11;;;;;;;3.23;3.03;;;;;;;;;;2073114;28;20260;-60
2021/11/27 05:58:12;;;;;;;3.50;3.20;;;;;;;;;;2065105;28;20170;-60
2021/11/27 05:59:12;;;;;;;3.37;3.17;;;;;;;;;;2072750;28;20247;-61
2021/11/27 06:00:13;;;;;;;2.97;2.87;;;;;;;;;;2071542;28;20554;-60
2021/11/27 06:01:13;;;;;;;3.10;2.90;;;;;;;;;;2073180;28;20204;-58
2021/11/27 06:02:14;;;;;;;3.00;2.90;;;;;;;;;;2071421;28;20192;-59
2021/11/27 06:03:14;;;;;;;2.97;2.87;;;;;;;;;;2072986;28;20798;-58
2021/11/27 06:04:14;;;;;;;2.60;2.50;;;;;;;;;;2073841;28;20169;-59
2021/11/27 06:05:15;;;;;;;3.27;3.07;;;;;;;;;;2074602;28;20626;-61
2021/11/27 06:06:15;;;;;;;3.70;3.50;;;;;;;;;;2069301;28;20232;-60
2021/11/27 06:07:16;;;;;;;2.70;2.50;;;;;;;;;;2056756;28;20186;-59
2021/11/27 06:08:16;;;;;;;3.43;3.23;;;;;;;;;;2072012;28;20177;-61
2021/11/27 06:09:16;;;;;;;3.37;3.17;;;;;;;;;;2073283;28;20165;-61
2021/11/27 06:10:17;;;;;;;2.70;2.60;;;;;;;;;;2069245;28;20220;-61
2021/11/27 06:11:17;;;;;;;3.70;3.50;;;;;;;;;;2073495;28;20161;-60
2021/11/27 06:12:17;;;;;;;2.87;2.67;;;;;;;;;;2073135;28;20247;-60
2021/11/27 06:13:18;;;;;;;2.80;2.70;;;;;;;;;;2073889;28;20193;-60